EW8711 Weather Reports


Display with metric or nautical units.
time (UTC)temp
F
wind
direction
speed
MPH
gust
MPH
rain 1hr
in
rain 24hr
in
rain mn
in
humidity
%
barometer
mb
20181216181044 43 45 4.0 6.0 0.16 0.95 0.82 95 1009.2
20181216180547 43 22 5.0 7.0 0.15 0.95 0.81 95 1009.4
20181216180036 44 22 5.0 7.0 0.14 0.92 0.78 95 1009.4
20181216175530 44 45 4.0 6.0 0.12 0.89 0.76 95 1009.6
20181216175019 44 22 4.0 6.0 0.12 0.89 0.74 95 1009.6
20181216174512 44 22 4.0 7.0 0.11 0.88 0.73 95 1009.9
20181216174009 44 68 5.0 7.0 0.08 0.86 0.71 95 1009.9
20181216173508 44 22 5.0 6.0 0.07 0.86 0.69 95 1009.9
20181216172948 44 22 3.0 6.0 0.07 0.86 0.69 95 1010.1
20181216172438 44 45 5.0 8.0 0.07 0.86 0.69 94 1010.1
20181216171935 44 45 4.0 8.0 0.06 0.86 0.68 94 1010.4
20181216171423 44 22 5.0 6.0 0.05 0.85 0.67 94 1010.4
20181216170858 44 45 4.0 6.0 0.04 0.85 0.66 94 1010.7
20181216170345 44 68 4.0 6.0 0.03 0.86 0.65 94 1010.7
20181216165842 44 90 4.0 6.0 0.01 0.85 0.63 94 1010.7
20181216165340 44 22 4.0 7.0 0.00 0.84 0.62 94 1010.9
20181216164830 44 112 4.0 8.0 0.00 0.84 0.62 93 1010.9
20181216164323 44 45 5.0 8.0 0.00 0.85 0.62 93 1010.9
20181216163812 44 45 4.0 7.0 0.00 0.85 0.62 93 1010.9
20181216163305 44 45 5.0 7.0 0.00 0.85 0.62 93 1010.9
20181216162744 44 22 5.0 6.0 0.00 0.86 0.62 93 1010.9
20181216162238 44 45 5.0 11.0 0.00 0.86 0.62 93 1010.9
20181216161717 44 22 6.0 11.0 0.00 0.86 0.62 93 1011.1
20181216161207 44 22 5.0 7.0 0.00 0.87 0.62 93 1011.1
20181216160658 44 68 5.0 8.0 0.00 0.87 0.62 92 1011.5
20181216160145 45 45 6.0 8.0 0.00 0.88 0.62 91 1011.5
20181216155636 45 45 6.0 8.0 0.00 0.88 0.62 90 1011.7
20181216155128 45 22 6.0 8.0 0.00 0.89 0.62 90 1011.7
20181216154601 45 68 6.0 11.0 0.00 0.89 0.62 90 1012.1
20181216154054 45 22 6.0 13.0 0.00 0.89 0.62 90 1012.1
20181216153536 45 68 7.0 13.0 0.00 0.89 0.62 90 1012.1
20181216153036 45 45 5.0 9.0 0.00 0.90 0.62 90 1012.5
20181216152528 45 22 6.0 9.0 0.00 0.90 0.62 91 1012.5
20181216152025 44 45 6.0 8.0 0.00 0.90 0.62 91 1012.6
20181216151516 44 45 6.0 9.0 0.00 0.90 0.62 91 1012.6
20181216151008 44 68 6.0 9.0 0.00 0.90 0.62 91 1013.0
20181216150500 44 22 6.0 8.0 0.00 0.91 0.62 91 1013.0
20181216145940 44 45 6.0 8.0 0.00 0.91 0.62 91 1013.0
20181216145436 44 68 5.0 11.0 0.00 0.92 0.62 91 1013.0
20181216144928 44 45 7.0 11.0 0.00 0.93 0.62 91 1013.0
20181216144418 44 68 6.0 8.0 0.00 0.93 0.62 92 1013.1
20181216143913 44 90 5.0 7.0 0.00 0.93 0.62 92 1013.1
20181216143355 44 112 5.0 10.0 0.00 0.94 0.62 92 1013.3
20181216142841 44 22 6.0 10.0 0.01 0.95 0.62 92 1013.3
20181216142342 44 22 6.0 10.0 0.01 0.95 0.62 92 1013.3
20181216141832 44 22 6.0 9.0 0.01 0.95 0.62 92 1013.3
20181216141326 44 45 6.0 11.0 0.01 0.96 0.62 92 1013.3
20181216140818 44 45 6.0 11.0 0.01 0.96 0.62 92 1013.4
20181216140305 44 22 7.0 11.0 0.01 0.97 0.62 92 1013.4
20181216135759 44 45 6.0 9.0 0.01 0.97 0.62 92 1013.3
20181216135222 44 45 6.0 11.0 0.01 0.97 0.62 92 1013.3
20181216134718 44 45 8.0 11.0 0.01 0.98 0.62 92 1013.3
20181216134206 44 112 6.0 11.0 0.01 0.98 0.62 92 1013.3
20181216133656 44 22 7.0 11.0 0.01 0.99 0.62 93 1013.3
20181216133153 44 45 7.0 11.0 0.01 0.99 0.62 93 1013.6
20181216132653 44 45 6.0 8.0 0.00 0.99 0.61 93 1013.6
20181216132134 44 22 5.0 8.0 0.00 0.99 0.61 94 1013.6
20181216131614 44 45 6.0 8.0 0.00 0.99 0.61 94 1013.6
20181216131102 44 45 5.0 9.0 0.00 0.99 0.61 94 1013.6
20181216130552 44 45 6.0 9.0 0.00 0.99 0.61 95 1013.7
20181216130040 44 22 6.0 8.0 0.00 0.99 0.61 95 1013.7
20181216125519 43 338 5.0 11.0 0.00 1.00 0.61 95 1013.9
20181216125016 43 45 6.0 11.0 0.00 1.00 0.61 95 1013.9
20181216124507 43 90 6.0 11.0 0.00 1.00 0.61 95 1013.9
20181216123955 43 45 5.0 7.0 0.00 1.00 0.61 95 1013.9
20181216123447 43 45 5.0 8.0 0.00 1.00 0.61 95 1013.9
20181216122942 43 45 5.0 8.0 0.00 1.01 0.61 95 1013.8
20181216122442 43 45 6.0 8.0 0.01 1.01 0.61 95 1013.8
20181216121921 43 45 5.0 8.0 0.01 1.01 0.61 95 1014.1
20181216121412 43 45 5.0 8.0 0.02 1.01 0.61 95 1014.1
20181216120907 43 45 6.0 8.0 0.02 1.02 0.61 95 1014.0
20181216120326 43 22 5.0 7.0 0.02 1.02 0.61 95 1014.0
20181216115813 43 22 5.0 7.0 0.02 1.02 0.61 95 1014.0
20181216115309 43 45 5.0 7.0 0.02 1.02 0.61 95 1014.0
20181216114759 43 22 5.0 9.0 0.02 1.02 0.61 95 1014.0
20181216114255 43 45 6.0 9.0 0.02 1.02 0.61 95 1014.1
20181216113733 43 68 5.0 7.0 0.02 1.02 0.61 95 1014.1
20181216113219 43 45 5.0 7.0 0.02 1.02 0.61 95 1014.2
20181216112701 43 45 5.0 9.0 0.01 1.01 0.60 95 1014.2
20181216112149 42 22 6.0 9.0 0.02 1.01 0.60 95 1014.3
20181216111646 42 22 5.0 9.0 0.02 1.01 0.60 95 1014.3
20181216111120 42 45 6.0 8.0 0.01 1.00 0.59 95 1014.3
20181216110617 42 45 4.0 7.0 0.02 1.00 0.59 95 1014.4
20181216110117 42 45 5.0 8.0 0.03 1.00 0.59 95 1014.4
20181216105556 42 45 5.0 8.0 0.03 1.00 0.59 95 1014.5
20181216105049 42 22 5.0 7.0 0.03 1.00 0.59 95 1014.5
20181216104544 42 90 4.0 7.0 0.04 1.00 0.59 95 1014.7
20181216104032 42 22 5.0 7.0 0.04 1.00 0.59 95 1014.7
20181216103532 42 0 5.0 7.0 0.05 1.00 0.59 95 1014.7
20181216103019 42 45 5.0 8.0 0.05 1.00 0.59 95 1014.9
20181216102511 42 45 5.0 7.0 0.05 1.00 0.59 95 1014.9
20181216101953 43 45 4.0 7.0 0.05 0.99 0.58 95 1015.1
20181216101453 43 45 4.0 7.0 0.05 0.99 0.58 95 1015.1
20181216100946 43 45 5.0 8.0 0.05 1.00 0.58 95 1015.1
20181216100442 43 22 5.0 8.0 0.04 0.99 0.57 95 1015.1
20181216095931 43 68 6.0 8.0 0.03 0.98 0.56 95 1015.1
20181216095429 43 45 5.0 8.0 0.04 0.98 0.56 95 1015.1
20181216094911 43 22 5.0 8.0 0.04 0.98 0.56 95 1015.1
20181216094353 43 45 6.0 11.0 0.04 0.97 0.55 95 1014.9
20181216093847 43 0 6.0 11.0 0.04 0.97 0.55 95 1014.9
20181216093342 43 45 5.0 7.0 0.05 0.96 0.54 95 1014.8
20181216092818 43 45 5.0 9.0 0.07 0.96 0.54 95 1014.8
20181216092315 44 22 6.0 9.0 0.08 0.95 0.53 95 1014.8
20181216091824 44 22 5.0 9.0 0.09 0.95 0.53 95 1014.9
20181216091306 44 68 6.0 11.0 0.11 0.95 0.53 95 1014.9
20181216090746 44 45 6.0 11.0 0.12 0.95 0.53 95 1015.0
20181216090228 44 45 6.0 9.0 0.12 0.96 0.53 95 1015.0
20181216085717 44 0 6.0 9.0 0.12 0.96 0.53 95 1015.1
20181216085206 44 45 5.0 11.0 0.11 0.95 0.52 95 1015.1
20181216084702 44 68 8.0 11.0 0.13 0.95 0.52 95 1015.1
20181216084201 44 112 7.0 11.0 0.13 0.94 0.51 95 1015.1
20181216083638 44 45 6.0 9.0 0.14 0.94 0.50 95 1015.1
20181216083130 44 68 5.0 11.0 0.13 0.92 0.48 95 1015.2
20181216082626 44 22 6.0 11.0 0.12 0.90 0.46 95 1015.2
20181216082113 44 22 6.0 11.0 0.12 0.89 0.45 95 1015.2
20181216081609 44 22 6.0 11.0 0.10 0.87 0.43 95 1015.2
20181216081056 44 90 4.0 10.0 0.09 0.86 0.42 95 1015.2
20181216080535 44 45 6.0 11.0 0.09 0.86 0.41 95 1015.0
20181216080032 44 45 6.0 11.0 0.10 0.86 0.41 95 1015.0
20181216075532 44 45 6.0 12.0 0.14 0.86 0.41 95 1014.8
20181216075027 44 45 7.0 12.0 0.19 0.86 0.40 95 1014.8
20181216074515 44 22 8.0 11.0 0.20 0.85 0.39 95 1014.9
20181216074008 44 45 6.0 9.0 0.20 0.85 0.38 95 1014.9
20181216073459 44 45 6.0 8.0 0.19 0.82 0.36 95 1014.9
20181216072946 44 22 5.0 8.0 0.20 0.82 0.35 95 1014.9
20181216072439 44 68 6.0 11.0 0.21 0.81 0.34 95 1014.9
20181216071937 44 22 8.0 11.0 0.21 0.80 0.33 95 1014.9
20181216071433 44 90 6.0 9.0 0.22 0.80 0.33 95 1014.9
20181216070920 44 22 5.0 11.0 0.22 0.79 0.32 95 1014.9
20181216070415 44 45 6.0 11.0 0.22 0.80 0.32 95 1014.9
20181216065907 44 45 6.0 10.0 0.22 0.78 0.30 94 1014.9
20181216065406 45 45 6.0 10.0 0.15 0.71 0.23 94 1015.2
20181216064844 45 45 6.0 9.0 0.12 0.68 0.21 94 1015.2
20181216064340 45 22 6.0 14.0 0.12 0.67 0.19 94 1014.5
20181216063828 45 45 7.0 14.0 0.10 0.65 0.17 94 1014.5
20181216063324 45 45 7.0 11.0 0.08 0.63 0.15 94 1014.4
20181216062810 45 112 7.0 11.0 0.08 0.62 0.14 94 1014.4
20181216062305 46 22 6.0 8.0 0.09 0.61 0.13 94 1014.4
20181216061805 46 45 5.0 8.0 0.11 0.60 0.12 94 1014.4
20181216061249 46 45 6.0 11.0 0.10 0.59 0.11 94 1014.4
20181216060750 46 90 6.0 11.0 0.09 0.58 0.10 93 1014.7
20181216060245 46 22 7.0 11.0 0.08 0.57 0.10 93 1014.7
20181216055744 46 45 7.0 10.0 0.08 0.57 0.08 93 1014.9
20181216055239 46 158 7.0 8.0 0.09 0.57 0.08 94 1014.9
20181216054731 47 45 5.0 9.0 0.09 0.57 0.08 94 1014.9
20181216054224 47 45 7.0 9.0 0.08 0.56 0.07 94 1014.8
20181216053712 47 45 6.0 9.0 0.08 0.57 0.07 94 1014.8
20181216053154 47 22 5.0 11.0 0.09 0.57 0.07 94 1014.8
20181216052655 47 45 6.0 11.0 0.07 0.56 0.05 94 1014.8
20181216052119 47 45 5.0 8.0 0.05 0.54 0.03 94 1014.9
20181216051610 47 22 5.0 8.0 0.04 0.52 0.01 94 1014.9
20181216051103 47 45 6.0 8.0 0.04 0.53 0.01 94 1014.9
20181216050548 47 45 5.0 8.0 0.04 0.53 0.01 94 1014.9
20181216050048 47 45 6.0 9.0 0.03 0.53 0.01 94 1014.9
20181216045546 47 45 6.0 11.0 0.03 0.53 0.53 94 1015.0
20181216045045 47 45 6.0 11.0 0.02 0.53 0.52 94 1015.0
20181216044539 47 68 8.0 11.0 0.02 0.53 0.52 94 1015.6
20181216044021 47 22 7.0 9.0 0.02 0.53 0.52 94 1015.6
20181216043503 47 90 6.0 8.0 0.02 0.54 0.52 94 1015.6
20181216042948 47 112 5.0 8.0 0.03 0.53 0.51 94 1015.7
20181216042435 47 45 6.0 8.0 0.05 0.54 0.51 94 1015.7
20181216041932 47 112 5.0 11.0 0.04 0.53 0.50 94 1016.0
20181216041419 47 22 6.0 11.0 0.04 0.53 0.50 94 1016.0
20181216040910 47 68 6.0 9.0 0.04 0.54 0.50 94 1015.9
20181216040400 47 22 6.0 9.0 0.04 0.54 0.50 94 1015.9
20181216035840 47 45 6.0 10.0 0.05 0.54 0.50 94 1015.9
20181216035330 47 22 6.0 10.0 0.05 0.54 0.50 94 1016.4
20181216034825 47 45 5.0 8.0 0.05 0.55 0.50 94 1016.4
20181216034313 47 68 5.0 7.0 0.05 0.55 0.50 94 1016.6
20181216033803 47 315 5.0 7.0 0.05 0.55 0.50 94 1016.6
20181216033300 47 45 5.0 7.0 0.04 0.55 0.49 94 1016.9
20181216032803 47 22 5.0 7.0 0.03 0.54 0.48 94 1016.9
20181216032241 47 68 5.0 7.0 0.01 0.52 0.46 94 1016.9
20181216031735 47 22 4.0 7.0 0.01 0.52 0.46 94 1017.1
20181216031230 47 45 4.0 6.0 0.01 0.53 0.46 94 1017.1
20181216030717 47 45 4.0 7.0 0.02 0.53 0.46 94 1017.0
20181216030207 47 45 5.0 7.0 0.02 0.54 0.46 94 1017.0
20181216025701 47 22 4.0 6.0 0.01 0.53 0.45 94 1017.2
20181216025144 47 90 4.0 6.0 0.01 0.54 0.45 94 1017.2
20181216024629 47 22 4.0 7.0 0.02 0.54 0.45 94 1017.2
20181216024120 47 45 4.0 7.0 0.03 0.55 0.45 93 1017.3
20181216023603 47 22 4.0 6.0 0.04 0.55 0.45 93 1017.3
20181216023051 47 22 4.0 7.0 0.05 0.56 0.45 93 1017.3
20181216022515 47 22 4.0 7.0 0.05 0.57 0.45 93 1017.3
20181216022014 47 45 4.0 6.0 0.05 0.58 0.45 93 1017.6
20181216021505 47 45 4.0 8.0 0.05 0.59 0.45 93 1017.6
20181216020951 47 45 5.0 8.0 0.04 0.59 0.44 93 1017.7
20181216020443 48 45 4.0 5.0 0.04 0.60 0.44 93 1017.7
20181216015932 48 45 4.0 7.0 0.04 0.60 0.44 93 1017.7
20181216015417 48 45 5.0 7.0 0.04 0.61 0.44 92 1017.9
20181216014909 48 68 6.0 7.0 0.04 0.61 0.44 92 1017.9
20181216014407 48 45 4.0 7.0 0.03 0.60 0.43 92 1018.1
20181216013906 48 22 4.0 7.0 0.01 0.59 0.42 91 1018.1
20181216013356 48 45 5.0 7.0 0.01 0.59 0.41 91 1018.5
20181216012848 48 45 4.0 6.0 0.00 0.58 0.40 91 1018.5
20181216012340 48 22 4.0 6.0 0.00 0.58 0.40 91 1018.5
20181216011818 49 45 4.0 6.0 0.00 0.58 0.40 91 1018.8
20181216011307 49 22 4.0 4.0 0.00 0.58 0.40 90 1018.8
20181216010804 49 45 4.0 6.0 0.00 0.58 0.40 90 1018.8
20181216010256 49 90 4.0 6.0 0.00 0.58 0.40 91 1018.8
20181216005755 49 45 4.0 5.0 0.00 0.58 0.40 91 1018.6
20181216005238 49 22 3.0 5.0 0.00 0.58 0.40 91 1018.6
20181216004725 49 45 3.0 7.0 0.00 0.58 0.40 91 1018.6
20181216004226 49 45 4.0 7.0 0.00 0.58 0.40 91 1018.7
20181216003714 49 68 4.0 6.0 0.00 0.58 0.40 91 1018.7
20181216003210 49 45 4.0 7.0 0.00 0.58 0.40 91 1018.4
20181216002700 49 45 4.0 7.0 0.00 0.58 0.40 91 1018.4
20181216002154 49 68 4.0 6.0 0.00 0.58 0.40 92 1018.3
20181216001643 49 22 4.0 7.0 0.00 0.58 0.40 92 1018.3
20181216001126 49 45 5.0 7.0 0.00 0.58 0.40 92 1018.3
20181216000627 49 45 4.0 7.0 0.00 0.58 0.40 92 1018.2
20181216000117 49 45 4.0 6.0 0.00 0.58 0.40 92 1018.2
20181215235616 49 22 4.0 5.0 0.00 0.58 0.40 92 1017.9
20181215235102 49 0 4.0 6.0 0.00 0.58 0.40 92 1017.9
20181215234552 49 22 4.0 6.0 0.00 0.58 0.40 92 1018.0
20181215234042 50 45 4.0 8.0 0.00 0.58 0.40 92 1018.0
20181215233527 50 22 5.0 8.0 0.00 0.58 0.40 92 1018.0
20181215233027 50 22 3.0 4.0 0.00 0.58 0.40 92 1018.1
20181215232522 50 45 4.0 5.0 0.00 0.58 0.40 92 1018.1
20181215232009 50 45 4.0 6.0 0.00 0.58 0.40 93 1017.3
20181215231458 50 45 4.0 6.0 0.00 0.58 0.40 93 1017.3
20181215230947 50 45 4.0 6.0 0.00 0.58 0.40 93 1017.6
20181215230434 50 68 4.0 5.0 0.00 0.58 0.40 93 1017.6
20181215225915 50 45 4.0 5.0 0.00 0.58 0.40 93 1017.6
20181215225412 50 45 4.0 5.0 0.00 0.58 0.40 94 1017.6
20181215224900 50 22 3.0 6.0 0.00 0.58 0.40 94 1017.6
20181215224349 50 22 4.0 6.0 0.00 0.58 0.40 94 1017.9
20181215223840 50 45 4.0 6.0 0.00 0.58 0.40 94 1017.9
20181215223332 50 45 4.0 4.0 0.00 0.58 0.40 94 1017.8
20181215222801 50 45 3.0 5.0 0.00 0.58 0.40 94 1017.8
20181215222252 50 45 4.0 7.0 0.00 0.58 0.40 94 1017.8
20181215221741 50 90 4.0 7.0 0.00 0.58 0.40 95 1017.5
20181215221231 50 22 4.0 7.0 0.00 0.58 0.40 95 1017.5
20181215220722 50 68 4.0 7.0 0.00 0.58 0.40 96 1017.5
20181215220151 50 22 4.0 7.0 0.00 0.58 0.40 96 1017.5
20181215215643 50 45 4.0 7.0 0.00 0.58 0.40 96 1017.4
20181215215130 50 45 5.0 7.0 0.00 0.58 0.40 96 1017.4
20181215214619 50 45 4.0 6.0 0.00 0.58 0.40 96 1018.2
20181215214109 50 45 4.0 6.0 0.00 0.58 0.40 96 1018.2
20181215213558 50 68 4.0 6.0 0.00 0.58 0.40 96 1018.2
20181215213044 50 22 4.0 6.0 0.00 0.58 0.40 96 1018.4
20181215212526 50 112 3.0 6.0 0.00 0.58 0.40 96 1018.4
20181215212015 50 68 4.0 6.0 0.00 0.58 0.40 96 1018.0
20181215211513 50 45 4.0 6.0 0.00 0.58 0.40 96 1018.0
20181215211013 50 45 4.0 7.0 0.00 0.58 0.40 96 1017.3
20181215210453 50 0 6.0 7.0 0.00 0.58 0.40 96 1017.3
20181215205920 50 90 5.0 7.0 0.00 0.58 0.40 96 1017.3
20181215205415 50 45 5.0 7.0 0.00 0.58 0.40 96 1017.9
20181215204905 50 68 4.0 7.0 0.00 0.58 0.40 96 1017.9
20181215204406 50 90 4.0 7.0 0.00 0.58 0.40 96 1018.0
20181215203841 50 112 4.0 6.0 0.00 0.58 0.40 96 1018.0
20181215203335 50 22 4.0 6.0 0.00 0.58 0.40 96 1017.8
20181215202827 50 22 4.0 6.0 0.00 0.58 0.40 96 1017.8
20181215202316 50 45 4.0 7.0 0.00 0.58 0.40 96 1017.8
20181215201808 50 112 5.0 7.0 0.00 0.58 0.40 96 1016.9
20181215201259 50 338 5.0 6.0 0.00 0.58 0.40 96 1016.9
20181215200724 50 22 5.0 6.0 0.00 0.58 0.40 96 1017.1
20181215200219 50 90 4.0 6.0 0.00 0.58 0.40 96 1017.1
20181215195711 51 45 4.0 6.0 0.00 0.58 0.40 96 1017.3
20181215195202 51 22 4.0 6.0 0.00 0.58 0.40 96 1017.3
20181215194652 51 45 4.0 6.0 0.00 0.58 0.40 96 1017.3
20181215194131 51 22 5.0 6.0 0.00 0.58 0.40 96 1017.2
20181215193628 51 90 5.0 7.0 0.00 0.58 0.40 96 1017.2
20181215193128 51 68 5.0 7.0 0.00 0.58 0.40 96 1017.6
20181215192608 51 45 5.0 6.0 0.00 0.58 0.40 96 1017.6
20181215192101 51 45 4.0 6.0 0.00 0.58 0.40 96 1017.9
20181215191553 51 45 5.0 6.0 0.00 0.58 0.40 96 1017.9
20181215191033 51 22 4.0 7.0 0.01 0.58 0.40 97 1017.9
20181215190524 51 22 5.0 7.0 0.01 0.58 0.40 97 1018.4
20181215190019 51 22 4.0 5.0 0.01 0.58 0.40 97 1018.4
20181215185509 51 22 4.0 5.0 0.01 0.58 0.40 97 1018.7
20181215185002 51 68 4.0 6.0 0.02 0.58 0.40 97 1018.7
20181215184452 51 90 4.0 6.0 0.02 0.58 0.40 97 1018.9
20181215183937 51 22 4.0 5.0 0.03 0.58 0.40 97 1018.9
20181215183421 50 22 4.0 5.0 0.04 0.58 0.40 97 1018.9
20181215182918 50 22 4.0 6.0 0.04 0.58 0.40 98 1018.9
20181215182414 50 22 5.0 6.0 0.04 0.58 0.40 98 1018.9
20181215181905 51 45 4.0 5.0 0.05 0.58 0.40 98 1018.9
20181215181352 51 22 3.0 4.0 0.06 0.58 0.40 98 1018.9